Terminal Aerodrome Forecast
Issued by NWS Cleveland, OH

Home | Current Version | Previous Version | Text Only | Print | Product List | Glossary Off
Versions: 1 2 3 4 5 6 7 8 9 10 11 12 13 14 15 16 17 18 19 20 21

966
FTUS41 KCLE 201616 AAA
TAFTOL
TAF AMD
KTOL 201616Z 2016/2112 22007KT P6SM SCT015 OVC035
      TEMPO 2016/2020 BKN015
     FM202000 17006KT 6SM -SHRA OVC015
      TEMPO 2020/2024 5SM -SHRA
     FM210200 01005KT 5SM BR OVC008
     FM210900 35006KT 4SM BR OVC012=

USA.gov is the U.S. government's official web portal to all federal, state and local government web resources and services.